sensor_id;sensor_type;location;lat;lon;timestamp;P1;P2;P0
49914;PMS5003;35806;47.958;13.158;2024-02-21T00:00:31;12;11;
49914;PMS5003;35806;47.958;13.158;2024-02-21T00:02:59;9;9;
49914;PMS5003;35806;47.958;13.158;2024-02-21T00:05:27;13;9;
49914;PMS5003;35806;47.958;13.158;2024-02-21T00:07:54;9;9;
49914;PMS5003;35806;47.958;13.158;2024-02-21T00:10:22;13;12;
49914;PMS5003;35806;47.958;13.158;2024-02-21T00:12:50;10;8;
49914;PMS5003;35806;47.958;13.158;2024-02-21T00:15:17;6;6;
49914;PMS5003;35806;47.958;13.158;2024-02-21T00:17:45;9;9;
49914;PMS5003;35806;47.958;13.158;2024-02-21T00:20:13;9;7;
49914;PMS5003;35806;47.958;13.158;2024-02-21T00:22:40;9;8;
49914;PMS5003;35806;47.958;13.158;2024-02-21T00:25:08;10;8;
49914;PMS5003;35806;47.958;13.158;2024-02-21T00:27:36;9;7;
49914;PMS5003;35806;47.958;13.158;2024-02-21T00:30:04;9;8;
49914;PMS5003;35806;47.958;13.158;2024-02-21T00:32:32;9;8;
49914;PMS5003;35806;47.958;13.158;2024-02-21T00:34:58;13;11;
49914;PMS5003;35806;47.958;13.158;2024-02-21T00:37:26;9;8;
49914;PMS5003;35806;47.958;13.158;2024-02-21T00:39:54;9;8;
49914;PMS5003;35806;47.958;13.158;2024-02-21T00:42:21;7;7;
49914;PMS5003;35806;47.958;13.158;2024-02-21T00:44:49;9;9;
49914;PMS5003;35806;47.958;13.158;2024-02-21T00:47:17;8;8;
49914;PMS5003;35806;47.958;13.158;2024-02-21T00:49:44;11;8;
49914;PMS5003;35806;47.958;13.158;2024-02-21T00:52:12;6;6;
49914;PMS5003;35806;47.958;13.158;2024-02-21T00:54:40;6;6;
49914;PMS5003;35806;47.958;13.158;2024-02-21T00:57:07;7;6;
49914;PMS5003;35806;47.958;13.158;2024-02-21T00:59:37;7;7;
49914;PMS5003;35806;47.958;13.158;2024-02-21T01:02:04;6;6;
49914;PMS5003;35806;47.958;13.158;2024-02-21T01:04:32;7;7;
49914;PMS5003;35806;47.958;13.158;2024-02-21T01:07:00;6;6;
49914;PMS5003;35806;47.958;13.158;2024-02-21T01:09:28;8;7;
49914;PMS5003;35806;47.958;13.158;2024-02-21T01:11:56;8;7;
49914;PMS5003;35806;47.958;13.158;2024-02-21T01:14:24;7;7;
49914;PMS5003;35806;47.958;13.158;2024-02-21T01:16:51;10;9;
49914;PMS5003;35806;47.958;13.158;2024-02-21T01:19:18;6;6;
49914;PMS5003;35806;47.958;13.158;2024-02-21T01:21:46;6;6;
49914;PMS5003;35806;47.958;13.158;2024-02-21T01:24:13;6;6;
49914;PMS5003;35806;47.958;13.158;2024-02-21T01:26:41;6;6;
49914;PMS5003;35806;47.958;13.158;2024-02-21T01:29:09;10;8;
49914;PMS5003;35806;47.958;13.158;2024-02-21T01:31:36;5;5;
49914;PMS5003;35806;47.958;13.158;2024-02-21T01:34:04;9;7;
49914;PMS5003;35806;47.958;13.158;2024-02-21T01:36:32;7;6;
49914;PMS5003;35806;47.958;13.158;2024-02-21T01:38:59;6;6;
49914;PMS5003;35806;47.958;13.158;2024-02-21T01:41:29;6;6;
49914;PMS5003;35806;47.958;13.158;2024-02-21T01:43:56;7;4;
49914;PMS5003;35806;47.958;13.158;2024-02-21T01:46:24;5;5;
49914;PMS5003;35806;47.958;13.158;2024-02-21T01:48:52;4;4;
49914;PMS5003;35806;47.958;13.158;2024-02-21T01:51:20;5;5;
49914;PMS5003;35806;47.958;13.158;2024-02-21T01:53:48;7;7;
49914;PMS5003;35806;47.958;13.158;2024-02-21T01:56:18;6;4;
49914;PMS5003;35806;47.958;13.158;2024-02-21T01:58:46;4;4;
49914;PMS5003;35806;47.958;13.158;2024-02-21T02:01:15;5;5;
49914;PMS5003;35806;47.958;13.158;2024-02-21T02:03:44;6;6;
49914;PMS5003;35806;47.958;13.158;2024-02-21T02:06:12;7;7;
49914;PMS5003;35806;47.958;13.158;2024-02-21T02:08:40;7;6;
49914;PMS5003;35806;47.958;13.158;2024-02-21T02:11:08;7;6;
49914;PMS5003;35806;47.958;13.158;2024-02-21T02:13:40;5;4;
49914;PMS5003;35806;47.958;13.158;2024-02-21T02:16:07;6;5;
49914;PMS5003;35806;47.958;13.158;2024-02-21T02:18:34;3;3;
49914;PMS5003;35806;47.958;13.158;2024-02-21T02:21:03;7;5;
49914;PMS5003;35806;47.958;13.158;2024-02-21T02:23:31;6;4;
49914;PMS5003;35806;47.958;13.158;2024-02-21T02:26:00;5;3;
49914;PMS5003;35806;47.958;13.158;2024-02-21T02:28:28;5;4;
49914;PMS5003;35806;47.958;13.158;2024-02-21T02:30:55;7;4;
49914;PMS5003;35806;47.958;13.158;2024-02-21T02:33:23;7;4;
49914;PMS5003;35806;47.958;13.158;2024-02-21T02:35:50;6;5;
49914;PMS5003;35806;47.958;13.158;2024-02-21T02:38:18;6;4;
49914;PMS5003;35806;47.958;13.158;2024-02-21T02:40:46;4;4;
49914;PMS5003;35806;47.958;13.158;2024-02-21T02:43:13;4;4;
49914;PMS5003;35806;47.958;13.158;2024-02-21T02:45:41;4;4;
49914;PMS5003;35806;47.958;13.158;2024-02-21T02:48:09;4;4;
49914;PMS5003;35806;47.958;13.158;2024-02-21T02:50:36;3;3;
49914;PMS5003;35806;47.958;13.158;2024-02-21T02:53:04;5;4;
49914;PMS5003;35806;47.958;13.158;2024-02-21T02:55:32;6;5;
49914;PMS5003;35806;47.958;13.158;2024-02-21T02:57:59;4;3;
49914;PMS5003;35806;47.958;13.158;2024-02-21T03:00:27;2;2;
49914;PMS5003;35806;47.958;13.158;2024-02-21T03:02:54;5;4;
49914;PMS5003;35806;47.958;13.158;2024-02-21T03:05:22;2;2;
49914;PMS5003;35806;47.958;13.158;2024-02-21T03:07:50;5;5;
49914;PMS5003;35806;47.958;13.158;2024-02-21T03:10:18;4;4;
49914;PMS5003;35806;47.958;13.158;2024-02-21T03:12:45;5;3;
49914;PMS5003;35806;47.958;13.158;2024-02-21T03:15:13;4;4;
49914;PMS5003;35806;47.958;13.158;2024-02-21T03:17:40;7;5;
49914;PMS5003;35806;47.958;13.158;2024-02-21T03:20:08;4;3;
49914;PMS5003;35806;47.958;13.158;2024-02-21T03:22:37;5;4;
49914;PMS5003;35806;47.958;13.158;2024-02-21T03:25:05;4;4;
49914;PMS5003;35806;47.958;13.158;2024-02-21T03:27:33;4;4;
49914;PMS5003;35806;47.958;13.158;2024-02-21T03:30:00;4;4;
49914;PMS5003;35806;47.958;13.158;2024-02-21T03:32:28;4;4;
49914;PMS5003;35806;47.958;13.158;2024-02-21T03:34:55;8;8;
49914;PMS5003;35806;47.958;13.158;2024-02-21T03:37:23;3;3;
49914;PMS5003;35806;47.958;13.158;2024-02-21T03:39:51;4;2;
49914;PMS5003;35806;47.958;13.158;2024-02-21T03:42:18;3;3;
49914;PMS5003;35806;47.958;13.158;2024-02-21T03:44:46;3;3;
49914;PMS5003;35806;47.958;13.158;2024-02-21T03:47:14;4;4;
49914;PMS5003;35806;47.958;13.158;2024-02-21T03:49:42;3;3;
49914;PMS5003;35806;47.958;13.158;2024-02-21T03:52:10;3;3;
49914;PMS5003;35806;47.958;13.158;2024-02-21T03:54:37;5;5;
49914;PMS5003;35806;47.958;13.158;2024-02-21T03:57:05;3;3;
49914;PMS5003;35806;47.958;13.158;2024-02-21T03:59:33;4;4;
49914;PMS5003;35806;47.958;13.158;2024-02-21T04:02:00;3;3;
49914;PMS5003;35806;47.958;13.158;2024-02-21T04:04:28;6;4;
49914;PMS5003;35806;47.958;13.158;2024-02-21T04:06:56;4;4;
49914;PMS5003;35806;47.958;13.158;2024-02-21T04:09:23;5;4;
49914;PMS5003;35806;47.958;13.158;2024-02-21T04:11:51;3;3;
49914;PMS5003;35806;47.958;13.158;2024-02-21T04:14:19;5;4;
49914;PMS5003;35806;47.958;13.158;2024-02-21T04:16:46;4;3;
49914;PMS5003;35806;47.958;13.158;2024-02-21T04:19:14;4;3;
49914;PMS5003;35806;47.958;13.158;2024-02-21T04:21:42;4;2;
49914;PMS5003;35806;47.958;13.158;2024-02-21T04:24:09;5;4;
49914;PMS5003;35806;47.958;13.158;2024-02-21T04:26:38;5;3;
49914;PMS5003;35806;47.958;13.158;2024-02-21T04:29:05;3;3;
49914;PMS5003;35806;47.958;13.158;2024-02-21T04:31:33;3;3;
49914;PMS5003;35806;47.958;13.158;2024-02-21T04:34:01;3;3;
49914;PMS5003;35806;47.958;13.158;2024-02-21T04:36:28;5;3;
49914;PMS5003;35806;47.958;13.158;2024-02-21T04:38:56;4;3;
49914;PMS5003;35806;47.958;13.158;2024-02-21T04:41:24;3;3;
49914;PMS5003;35806;47.958;13.158;2024-02-21T04:43:51;4;4;
49914;PMS5003;35806;47.958;13.158;2024-02-21T04:46:19;4;4;
49914;PMS5003;35806;47.958;13.158;2024-02-21T04:48:46;3;3;
49914;PMS5003;35806;47.958;13.158;2024-02-21T04:51:14;5;3;
49914;PMS5003;35806;47.958;13.158;2024-02-21T04:53:42;2;2;
49914;PMS5003;35806;47.958;13.158;2024-02-21T04:56:09;4;3;
49914;PMS5003;35806;47.958;13.158;2024-02-21T04:58:38;4;4;
49914;PMS5003;35806;47.958;13.158;2024-02-21T05:01:06;6;3;
49914;PMS5003;35806;47.958;13.158;2024-02-21T05:03:34;3;3;
49914;PMS5003;35806;47.958;13.158;2024-02-21T05:06:02;3;3;
49914;PMS5003;35806;47.958;13.158;2024-02-21T05:08:32;5;3;
49914;PMS5003;35806;47.958;13.158;2024-02-21T05:11:00;4;3;
49914;PMS5003;35806;47.958;13.158;2024-02-21T05:13:28;4;3;
49914;PMS5003;35806;47.958;13.158;2024-02-21T05:15:56;4;3;
49914;PMS5003;35806;47.958;13.158;2024-02-21T05:18:25;5;3;
49914;PMS5003;35806;47.958;13.158;2024-02-21T05:20:58;4;3;
49914;PMS5003;35806;47.958;13.158;2024-02-21T05:23:28;5;5;
49914;PMS5003;35806;47.958;13.158;2024-02-21T05:25:56;3;3;
49914;PMS5003;35806;47.958;13.158;2024-02-21T05:28:29;3;3;
49914;PMS5003;35806;47.958;13.158;2024-02-21T05:30:57;2;2;
49914;PMS5003;35806;47.958;13.158;2024-02-21T05:33:31;5;3;
49914;PMS5003;35806;47.958;13.158;2024-02-21T05:36:00;4;4;
49914;PMS5003;35806;47.958;13.158;2024-02-21T05:38:28;5;4;
49914;PMS5003;35806;47.958;13.158;2024-02-21T05:40:57;5;5;
49914;PMS5003;35806;47.958;13.158;2024-02-21T05:43:26;3;3;
49914;PMS5003;35806;47.958;13.158;2024-02-21T05:45:54;4;4;
49914;PMS5003;35806;47.958;13.158;2024-02-21T05:48:23;5;5;
49914;PMS5003;35806;47.958;13.158;2024-02-21T05:50:51;3;3;
49914;PMS5003;35806;47.958;13.158;2024-02-21T05:53:20;4;4;
49914;PMS5003;35806;47.958;13.158;2024-02-21T05:55:52;4;4;
49914;PMS5003;35806;47.958;13.158;2024-02-21T05:58:20;4;4;
49914;PMS5003;35806;47.958;13.158;2024-02-21T06:00:49;3;3;
49914;PMS5003;35806;47.958;13.158;2024-02-21T06:03:17;4;4;
49914;PMS5003;35806;47.958;13.158;2024-02-21T06:05:47;6;6;
49914;PMS5003;35806;47.958;13.158;2024-02-21T06:08:15;3;3;
49914;PMS5003;35806;47.958;13.158;2024-02-21T06:10:44;4;4;
49914;PMS5003;35806;47.958;13.158;2024-02-21T06:13:12;6;4;
49914;PMS5003;35806;47.958;13.158;2024-02-21T06:15:45;5;4;
49914;PMS5003;35806;47.958;13.158;2024-02-21T06:18:14;5;4;
49914;PMS5003;35806;47.958;13.158;2024-02-21T06:20:42;4;4;
49914;PMS5003;35806;47.958;13.158;2024-02-21T06:23:11;6;5;
49914;PMS5003;35806;47.958;13.158;2024-02-21T06:25:40;7;5;
49914;PMS5003;35806;47.958;13.158;2024-02-21T06:28:09;7;7;
49914;PMS5003;35806;47.958;13.158;2024-02-21T06:30:37;5;5;
49914;PMS5003;35806;47.958;13.158;2024-02-21T06:33:06;7;4;
49914;PMS5003;35806;47.958;13.158;2024-02-21T06:35:34;5;5;
49914;PMS5003;35806;47.958;13.158;2024-02-21T06:38:02;6;6;
49914;PMS5003;35806;47.958;13.158;2024-02-21T06:40:32;9;4;
49914;PMS5003;35806;47.958;13.158;2024-02-21T06:43:00;6;6;
49914;PMS5003;35806;47.958;13.158;2024-02-21T06:45:28;5;5;
49914;PMS5003;35806;47.958;13.158;2024-02-21T06:47:56;4;4;
49914;PMS5003;35806;47.958;13.158;2024-02-21T06:50:25;6;6;
49914;PMS5003;35806;47.958;13.158;2024-02-21T06:52:54;6;5;
49914;PMS5003;35806;47.958;13.158;2024-02-21T06:55:23;5;5;
49914;PMS5003;35806;47.958;13.158;2024-02-21T06:57:51;5;4;
49914;PMS5003;35806;47.958;13.158;2024-02-21T07:00:20;4;3;
49914;PMS5003;35806;47.958;13.158;2024-02-21T07:02:48;3;3;
49914;PMS5003;35806;47.958;13.158;2024-02-21T07:05:16;3;3;
49914;PMS5003;35806;47.958;13.158;2024-02-21T07:07:44;3;3;
49914;PMS5003;35806;47.958;13.158;2024-02-21T07:10:12;4;4;
49914;PMS5003;35806;47.958;13.158;2024-02-21T07:12:39;6;6;
49914;PMS5003;35806;47.958;13.158;2024-02-21T07:15:08;4;4;
49914;PMS5003;35806;47.958;13.158;2024-02-21T07:17:42;4;4;
49914;PMS5003;35806;47.958;13.158;2024-02-21T07:20:20;7;4;
49914;PMS5003;35806;47.958;13.158;2024-02-21T07:22:47;3;3;
49914;PMS5003;35806;47.958;13.158;2024-02-21T07:25:20;6;5;
49914;PMS5003;35806;47.958;13.158;2024-02-21T07:27:48;4;4;
49914;PMS5003;35806;47.958;13.158;2024-02-21T07:30:16;4;4;
49914;PMS5003;35806;47.958;13.158;2024-02-21T07:32:43;5;4;
49914;PMS5003;35806;47.958;13.158;2024-02-21T07:35:12;5;5;
49914;PMS5003;35806;47.958;13.158;2024-02-21T07:37:39;5;4;
49914;PMS5003;35806;47.958;13.158;2024-02-21T07:40:12;6;6;
49914;PMS5003;35806;47.958;13.158;2024-02-21T07:42:41;5;5;
49914;PMS5003;35806;47.958;13.158;2024-02-21T07:45:10;4;4;
49914;PMS5003;35806;47.958;13.158;2024-02-21T07:47:38;7;5;
49914;PMS5003;35806;47.958;13.158;2024-02-21T07:50:06;4;4;
49914;PMS5003;35806;47.958;13.158;2024-02-21T07:52:35;4;3;
49914;PMS5003;35806;47.958;13.158;2024-02-21T07:55:14;4;4;
49914;PMS5003;35806;47.958;13.158;2024-02-21T07:57:42;6;5;
49914;PMS5003;35806;47.958;13.158;2024-02-21T08:00:11;7;4;
49914;PMS5003;35806;47.958;13.158;2024-02-21T08:02:39;7;5;
49914;PMS5003;35806;47.958;13.158;2024-02-21T08:05:08;4;4;
49914;PMS5003;35806;47.958;13.158;2024-02-21T08:07:36;5;4;
49914;PMS5003;35806;47.958;13.158;2024-02-21T08:10:09;4;4;
49914;PMS5003;35806;47.958;13.158;2024-02-21T08:12:58;3;3;
49914;PMS5003;35806;47.958;13.158;2024-02-21T08:15:28;4;4;
49914;PMS5003;35806;47.958;13.158;2024-02-21T08:17:56;2;2;
49914;PMS5003;35806;47.958;13.158;2024-02-21T08:20:26;7;6;
49914;PMS5003;35806;47.958;13.158;2024-02-21T08:22:54;6;5;
49914;PMS5003;35806;47.958;13.158;2024-02-21T08:25:23;4;4;
49914;PMS5003;35806;47.958;13.158;2024-02-21T08:27:53;4;4;
49914;PMS5003;35806;47.958;13.158;2024-02-21T08:30:27;5;5;
49914;PMS5003;35806;47.958;13.158;2024-02-21T08:32:55;5;5;
49914;PMS5003;35806;47.958;13.158;2024-02-21T08:35:24;6;5;
49914;PMS5003;35806;47.958;13.158;2024-02-21T08:37:52;4;4;
49914;PMS5003;35806;47.958;13.158;2024-02-21T08:40:21;10;9;
49914;PMS5003;35806;47.958;13.158;2024-02-21T08:42:49;10;6;
49914;PMS5003;35806;47.958;13.158;2024-02-21T08:45:17;13;11;
49914;PMS5003;35806;47.958;13.158;2024-02-21T08:47:45;9;8;
49914;PMS5003;35806;47.958;13.158;2024-02-21T08:50:14;6;4;
49914;PMS5003;35806;47.958;13.158;2024-02-21T08:52:41;6;6;
49914;PMS5003;35806;47.958;13.158;2024-02-21T08:55:14;6;6;
49914;PMS5003;35806;47.958;13.158;2024-02-21T08:57:42;7;5;
49914;PMS5003;35806;47.958;13.158;2024-02-21T09:00:11;5;5;
49914;PMS5003;35806;47.958;13.158;2024-02-21T09:02:40;6;5;
49914;PMS5003;35806;47.958;13.158;2024-02-21T09:05:14;6;6;
49914;PMS5003;35806;47.958;13.158;2024-02-21T09:07:42;5;2;
49914;PMS5003;35806;47.958;13.158;2024-02-21T09:10:16;3;3;
49914;PMS5003;35806;47.958;13.158;2024-02-21T09:12:46;5;5;
49914;PMS5003;35806;47.958;13.158;2024-02-21T09:15:14;5;4;
49914;PMS5003;35806;47.958;13.158;2024-02-21T09:17:43;7;4;
49914;PMS5003;35806;47.958;13.158;2024-02-21T09:20:11;4;4;
49914;PMS5003;35806;47.958;13.158;2024-02-21T09:22:39;4;3;
49914;PMS5003;35806;47.958;13.158;2024-02-21T09:25:07;3;3;
49914;PMS5003;35806;47.958;13.158;2024-02-21T09:27:49;3;3;
49914;PMS5003;35806;47.958;13.158;2024-02-21T09:30:17;4;4;
49914;PMS5003;35806;47.958;13.158;2024-02-21T09:32:45;6;3;
49914;PMS5003;35806;47.958;13.158;2024-02-21T09:35:17;5;4;
49914;PMS5003;35806;47.958;13.158;2024-02-21T09:37:45;2;2;
49914;PMS5003;35806;47.958;13.158;2024-02-21T09:40:14;3;3;
49914;PMS5003;35806;47.958;13.158;2024-02-21T09:42:42;3;3;
49914;PMS5003;35806;47.958;13.158;2024-02-21T09:45:13;7;4;
49914;PMS5003;35806;47.958;13.158;2024-02-21T09:47:50;4;4;
49914;PMS5003;35806;47.958;13.158;2024-02-21T09:50:28;7;4;
49914;PMS5003;35806;47.958;13.158;2024-02-21T09:52:58;3;3;
49914;PMS5003;35806;47.958;13.158;2024-02-21T09:55:27;4;4;
49914;PMS5003;35806;47.958;13.158;2024-02-21T09:57:57;4;3;
49914;PMS5003;35806;47.958;13.158;2024-02-21T10:00:31;4;4;
49914;PMS5003;35806;47.958;13.158;2024-02-21T10:02:59;3;3;
49914;PMS5003;35806;47.958;13.158;2024-02-21T10:05:27;4;3;
49914;PMS5003;35806;47.958;13.158;2024-02-21T10:07:54;2;2;
49914;PMS5003;35806;47.958;13.158;2024-02-21T10:10:23;3;3;
49914;PMS5003;35806;47.958;13.158;2024-02-21T10:12:51;2;2;
49914;PMS5003;35806;47.958;13.158;2024-02-21T10:15:20;3;3;
49914;PMS5003;35806;47.958;13.158;2024-02-21T10:17:49;3;3;
49914;PMS5003;35806;47.958;13.158;2024-02-21T10:20:24;2;2;
49914;PMS5003;35806;47.958;13.158;2024-02-21T10:23:00;2;2;
49914;PMS5003;35806;47.958;13.158;2024-02-21T10:25:30;2;2;
49914;PMS5003;35806;47.958;13.158;2024-02-21T10:27:58;3;2;
49914;PMS5003;35806;47.958;13.158;2024-02-21T10:30:27;2;2;
49914;PMS5003;35806;47.958;13.158;2024-02-21T10:32:56;3;3;
49914;PMS5003;35806;47.958;13.158;2024-02-21T10:35:26;5;4;
49914;PMS5003;35806;47.958;13.158;2024-02-21T10:37:55;1;1;
49914;PMS5003;35806;47.958;13.158;2024-02-21T10:40:24;1;1;
49914;PMS5003;35806;47.958;13.158;2024-02-21T10:42:55;3;2;
49914;PMS5003;35806;47.958;13.158;2024-02-21T10:45:42;1;1;
49914;PMS5003;35806;47.958;13.158;2024-02-21T10:48:13;1;1;
49914;PMS5003;35806;47.958;13.158;2024-02-21T10:50:47;2;2;
49914;PMS5003;35806;47.958;13.158;2024-02-21T10:53:28;1;1;
49914;PMS5003;35806;47.958;13.158;2024-02-21T10:56:10;2;1;
49914;PMS5003;35806;47.958;13.158;2024-02-21T10:58:48;1;1;
49914;PMS5003;35806;47.958;13.158;2024-02-21T11:01:27;1;1;
49914;PMS5003;35806;47.958;13.158;2024-02-21T11:03:57;1;1;
49914;PMS5003;35806;47.958;13.158;2024-02-21T11:06:28;1;0;
49914;PMS5003;35806;47.958;13.158;2024-02-21T11:09:05;1;1;
49914;PMS5003;35806;47.958;13.158;2024-02-21T11:11:35;0;0;
49914;PMS5003;35806;47.958;13.158;2024-02-21T11:14:06;2;1;
49914;PMS5003;35806;47.958;13.158;2024-02-21T11:16:36;0;0;
49914;PMS5003;35806;47.958;13.158;2024-02-21T11:19:06;0;0;
49914;PMS5003;35806;47.958;13.158;2024-02-21T11:21:40;0;0;
49914;PMS5003;35806;47.958;13.158;2024-02-21T11:24:08;0;0;
49914;PMS5003;35806;47.958;13.158;2024-02-21T11:26:37;1;1;
49914;PMS5003;35806;47.958;13.158;2024-02-21T11:29:06;0;0;
49914;PMS5003;35806;47.958;13.158;2024-02-21T11:31:42;0;0;
49914;PMS5003;35806;47.958;13.158;2024-02-21T11:34:11;1;1;
49914;PMS5003;35806;47.958;13.158;2024-02-21T11:36:47;2;2;
49914;PMS5003;35806;47.958;13.158;2024-02-21T11:39:19;3;2;
49914;PMS5003;35806;47.958;13.158;2024-02-21T11:42:01;0;0;
49914;PMS5003;35806;47.958;13.158;2024-02-21T11:44:39;1;1;
49914;PMS5003;35806;47.958;13.158;2024-02-21T11:47:08;1;1;
49914;PMS5003;35806;47.958;13.158;2024-02-21T11:49:36;2;1;
49914;PMS5003;35806;47.958;13.158;2024-02-21T11:52:06;0;0;
49914;PMS5003;35806;47.958;13.158;2024-02-21T11:54:34;1;1;
49914;PMS5003;35806;47.958;13.158;2024-02-21T11:57:03;1;1;
49914;PMS5003;35806;47.958;13.158;2024-02-21T11:59:31;1;0;
49914;PMS5003;35806;47.958;13.158;2024-02-21T12:02:07;1;1;
49914;PMS5003;35806;47.958;13.158;2024-02-21T12:04:35;1;0;
49914;PMS5003;35806;47.958;13.158;2024-02-21T12:07:04;0;0;
49914;PMS5003;35806;47.958;13.158;2024-02-21T12:09:33;2;1;
49914;PMS5003;35806;47.958;13.158;2024-02-21T12:10:07;2;1;
49914;PMS5003;35806;47.958;13.158;2024-02-21T12:12:42;0;0;
49914;PMS5003;35806;47.958;13.158;2024-02-21T12:15:22;1;1;
49914;PMS5003;35806;47.958;13.158;2024-02-21T12:17:52;2;1;
49914;PMS5003;35806;47.958;13.158;2024-02-21T12:20:25;1;1;
49914;PMS5003;35806;47.958;13.158;2024-02-21T12:22:54;1;1;
49914;PMS5003;35806;47.958;13.158;2024-02-21T12:25:28;2;1;
49914;PMS5003;35806;47.958;13.158;2024-02-21T12:27:56;0;0;
49914;PMS5003;35806;47.958;13.158;2024-02-21T12:30:24;1;1;
49914;PMS5003;35806;47.958;13.158;2024-02-21T12:32:57;0;0;
49914;PMS5003;35806;47.958;13.158;2024-02-21T12:35:26;1;1;
49914;PMS5003;35806;47.958;13.158;2024-02-21T12:37:54;2;1;
49914;PMS5003;35806;47.958;13.158;2024-02-21T12:40:27;1;1;
49914;PMS5003;35806;47.958;13.158;2024-02-21T12:42:55;0;0;
49914;PMS5003;35806;47.958;13.158;2024-02-21T12:45:24;0;0;
49914;PMS5003;35806;47.958;13.158;2024-02-21T12:47:58;1;1;
49914;PMS5003;35806;47.958;13.158;2024-02-21T12:50:27;0;0;
49914;PMS5003;35806;47.958;13.158;2024-02-21T12:52:55;0;0;
49914;PMS5003;35806;47.958;13.158;2024-02-21T12:55:24;1;1;
49914;PMS5003;35806;47.958;13.158;2024-02-21T12:57:53;0;0;
49914;PMS5003;35806;47.958;13.158;2024-02-21T13:00:22;0;0;
49914;PMS5003;35806;47.958;13.158;2024-02-21T13:02:50;0;0;
49914;PMS5003;35806;47.958;13.158;2024-02-21T13:05:19;0;0;
49914;PMS5003;35806;47.958;13.158;2024-02-21T13:07:47;0;0;
49914;PMS5003;35806;47.958;13.158;2024-02-21T13:10:15;0;0;
49914;PMS5003;35806;47.958;13.158;2024-02-21T13:12:44;2;1;
49914;PMS5003;35806;47.958;13.158;2024-02-21T13:15:38;0;0;
49914;PMS5003;35806;47.958;13.158;2024-02-21T13:18:06;0;0;
49914;PMS5003;35806;47.958;13.158;2024-02-21T13:20:35;0;0;
49914;PMS5003;35806;47.958;13.158;2024-02-21T13:23:16;1;1;
49914;PMS5003;35806;47.958;13.158;2024-02-21T13:27:30;1;1;
49914;PMS5003;35806;47.958;13.158;2024-02-21T13:29:57;0;0;
49914;PMS5003;35806;47.958;13.158;2024-02-21T13:32:25;2;0;
49914;PMS5003;35806;47.958;13.158;2024-02-21T13:34:53;1;1;
49914;PMS5003;35806;47.958;13.158;2024-02-21T13:37:21;0;0;
49914;PMS5003;35806;47.958;13.158;2024-02-21T13:39:48;0;0;
49914;PMS5003;35806;47.958;13.158;2024-02-21T13:42:16;1;1;
49914;PMS5003;35806;47.958;13.158;2024-02-21T13:44:43;2;1;
49914;PMS5003;35806;47.958;13.158;2024-02-21T13:47:11;1;1;
49914;PMS5003;35806;47.958;13.158;2024-02-21T13:49:40;2;1;
49914;PMS5003;35806;47.958;13.158;2024-02-21T13:52:07;1;1;
49914;PMS5003;35806;47.958;13.158;2024-02-21T13:54:36;3;1;
49914;PMS5003;35806;47.958;13.158;2024-02-21T13:57:34;1;1;
49914;PMS5003;35806;47.958;13.158;2024-02-21T14:00:01;0;0;
49914;PMS5003;35806;47.958;13.158;2024-02-21T14:02:29;1;1;
49914;PMS5003;35806;47.958;13.158;2024-02-21T14:04:57;1;1;
49914;PMS5003;35806;47.958;13.158;2024-02-21T14:07:29;1;1;
49914;PMS5003;35806;47.958;13.158;2024-02-21T14:09:57;1;1;
49914;PMS5003;35806;47.958;13.158;2024-02-21T14:12:25;2;2;
49914;PMS5003;35806;47.958;13.158;2024-02-21T14:14:53;3;1;
49914;PMS5003;35806;47.958;13.158;2024-02-21T14:17:21;0;0;
49914;PMS5003;35806;47.958;13.158;2024-02-21T14:19:49;0;0;
49914;PMS5003;35806;47.958;13.158;2024-02-21T14:22:16;0;0;
49914;PMS5003;35806;47.958;13.158;2024-02-21T14:24:44;0;0;
49914;PMS5003;35806;47.958;13.158;2024-02-21T14:27:12;0;0;
49914;PMS5003;35806;47.958;13.158;2024-02-21T14:29:40;1;1;
49914;PMS5003;35806;47.958;13.158;2024-02-21T14:32:09;1;1;
49914;PMS5003;35806;47.958;13.158;2024-02-21T14:34:40;1;1;
49914;PMS5003;35806;47.958;13.158;2024-02-21T14:37:07;2;2;
49914;PMS5003;35806;47.958;13.158;2024-02-21T14:39:35;1;1;
49914;PMS5003;35806;47.958;13.158;2024-02-21T14:42:03;0;0;
49914;PMS5003;35806;47.958;13.158;2024-02-21T14:44:32;0;0;
49914;PMS5003;35806;47.958;13.158;2024-02-21T14:46:59;1;1;
49914;PMS5003;35806;47.958;13.158;2024-02-21T14:49:26;0;0;
49914;PMS5003;35806;47.958;13.158;2024-02-21T14:51:54;0;0;
49914;PMS5003;35806;47.958;13.158;2024-02-21T14:54:21;0;0;
49914;PMS5003;35806;47.958;13.158;2024-02-21T14:56:49;1;1;
49914;PMS5003;35806;47.958;13.158;2024-02-21T14:59:37;0;0;
49914;PMS5003;35806;47.958;13.158;2024-02-21T15:02:06;0;0;
49914;PMS5003;35806;47.958;13.158;2024-02-21T15:04:34;0;0;
49914;PMS5003;35806;47.958;13.158;2024-02-21T15:07:01;1;1;
49914;PMS5003;35806;47.958;13.158;2024-02-21T15:09:29;2;1;
49914;PMS5003;35806;47.958;13.158;2024-02-21T15:11:57;0;0;
49914;PMS5003;35806;47.958;13.158;2024-02-21T15:14:24;1;1;
49914;PMS5003;35806;47.958;13.158;2024-02-21T15:16:51;2;2;
49914;PMS5003;35806;47.958;13.158;2024-02-21T15:19:19;1;1;
49914;PMS5003;35806;47.958;13.158;2024-02-21T15:21:47;1;1;
49914;PMS5003;35806;47.958;13.158;2024-02-21T15:24:14;0;0;
49914;PMS5003;35806;47.958;13.158;2024-02-21T15:26:42;1;1;
49914;PMS5003;35806;47.958;13.158;2024-02-21T15:29:10;2;0;
49914;PMS5003;35806;47.958;13.158;2024-02-21T15:31:37;1;1;
49914;PMS5003;35806;47.958;13.158;2024-02-21T15:34:05;2;1;
49914;PMS5003;35806;47.958;13.158;2024-02-21T15:36:34;1;1;
49914;PMS5003;35806;47.958;13.158;2024-02-21T15:39:03;1;1;
49914;PMS5003;35806;47.958;13.158;2024-02-21T15:41:30;2;1;
49914;PMS5003;35806;47.958;13.158;2024-02-21T15:43:59;2;2;
49914;PMS5003;35806;47.958;13.158;2024-02-21T15:44:21;2;2;
49914;PMS5003;35806;47.958;13.158;2024-02-21T15:47:05;1;1;
49914;PMS5003;35806;47.958;13.158;2024-02-21T15:49:33;2;2;
49914;PMS5003;35806;47.958;13.158;2024-02-21T15:52:01;1;1;
49914;PMS5003;35806;47.958;13.158;2024-02-21T15:54:28;0;0;
49914;PMS5003;35806;47.958;13.158;2024-02-21T15:56:58;1;1;
49914;PMS5003;35806;47.958;13.158;2024-02-21T15:59:30;2;0;
49914;PMS5003;35806;47.958;13.158;2024-02-21T16:01:58;1;1;
49914;PMS5003;35806;47.958;13.158;2024-02-21T16:04:27;2;1;
49914;PMS5003;35806;47.958;13.158;2024-02-21T16:07:07;2;1;
49914;PMS5003;35806;47.958;13.158;2024-02-21T16:09:40;1;1;
49914;PMS5003;35806;47.958;13.158;2024-02-21T16:12:14;1;1;
49914;PMS5003;35806;47.958;13.158;2024-02-21T16:14:43;1;1;
49914;PMS5003;35806;47.958;13.158;2024-02-21T16:17:10;1;1;
49914;PMS5003;35806;47.958;13.158;2024-02-21T16:19:38;1;1;
49914;PMS5003;35806;47.958;13.158;2024-02-21T16:22:06;10;5;
49914;PMS5003;35806;47.958;13.158;2024-02-21T16:24:43;3;1;
49914;PMS5003;35806;47.958;13.158;2024-02-21T16:27:11;1;1;
49914;PMS5003;35806;47.958;13.158;2024-02-21T16:29:44;1;1;
49914;PMS5003;35806;47.958;13.158;2024-02-21T16:32:11;2;2;
49914;PMS5003;35806;47.958;13.158;2024-02-21T16:34:40;2;2;
49914;PMS5003;35806;47.958;13.158;2024-02-21T16:37:08;3;2;
49914;PMS5003;35806;47.958;13.158;2024-02-21T16:39:41;1;1;
49914;PMS5003;35806;47.958;13.158;2024-02-21T16:42:09;0;0;
49914;PMS5003;35806;47.958;13.158;2024-02-21T16:44:37;2;2;